Time;durP1;ratioP1;P1;durP2;ratioP2;P2;SDS_P1;SDS_P2;PMS_P1;PMS_P2;Temp;Humidity;BMP_temperature;BMP_pressure;BME280_temperature;BME280_humidity;BME280_pressure;Samples;Min_cycle;Max_cycle;Signal;HPM_P1;HPM_P2
2021/04/27 00:00:25;;;;;;;11.40;7.65;;;9.10;99.90;;;9.26;57.27;101336.31;5074106;28;20076;-75
2021/04/27 00:02:53;;;;;;;10.98;7.75;;;9.10;99.90;;;9.36;57.51;101330.22;5074248;28;20044;-75
2021/04/27 00:05:20;;;;;;;8.25;7.25;;;9.10;99.90;;;9.36;57.06;101334.63;5074147;28;20101;-75
2021/04/27 00:07:48;;;;;;;11.70;7.75;;;9.10;99.90;;;9.30;57.37;101327.53;5073724;28;20048;-75
2021/04/27 00:10:18;;;;;;;11.55;7.22;;;9.10;99.90;;;9.33;57.52;101326.69;5073931;28;20186;-75
2021/04/27 00:12:46;;;;;;;9.27;6.65;;;9.10;99.90;;;9.37;57.70;101323.19;5073702;28;20045;-75
2021/04/27 00:15:18;;;;;;;9.70;7.05;;;9.10;99.90;;;9.33;57.47;101319.63;5072388;28;20486;-75
2021/04/27 00:17:46;;;;;;;13.63;7.95;;;9.10;99.90;;;9.26;57.34;101311.66;5073760;28;20529;-75
2021/04/27 00:20:15;;;;;;;9.15;7.63;;;9.00;99.90;;;9.26;57.61;101312.53;5073581;28;20089;-75
2021/04/27 00:22:43;;;;;;;11.57;6.93;;;9.00;99.90;;;9.30;57.44;101311.69;5073632;28;20154;-75
2021/04/27 00:25:12;;;;;;;11.82;7.75;;;9.10;99.90;;;9.33;58.19;101311.72;5073486;28;20106;-75
2021/04/27 00:27:40;;;;;;;12.10;6.85;;;9.10;99.90;;;9.34;58.00;101309.97;5073207;28;20481;-75
2021/04/27 00:30:10;;;;;;;12.23;7.05;;;9.10;99.90;;;9.29;57.68;101296.72;5073530;28;20056;-75
2021/04/27 00:32:38;;;;;;;12.15;8.02;;;9.10;99.90;;;9.35;57.80;101302.03;5073001;28;20041;-75
2021/04/27 00:35:07;;;;;;;9.50;7.75;;;9.10;99.90;;;9.35;57.81;101303.81;5073163;28;20480;-75
2021/04/27 00:37:34;;;;;;;12.73;6.40;;;9.10;99.90;;;9.28;58.01;101287.03;5073431;28;20098;-75
2021/04/27 00:40:01;;;;;;;9.07;7.05;;;9.10;99.90;;;9.22;57.83;101273.81;5072957;28;20490;-75
2021/04/27 00:42:31;;;;;;;15.40;8.02;;;9.10;99.90;;;9.12;57.93;101261.41;5072009;28;20049;-75
2021/04/27 00:44:59;;;;;;;9.70;7.75;;;9.10;99.90;;;9.29;57.64;101282.66;5071252;28;20123;-75
2021/04/27 00:47:27;;;;;;;11.70;6.95;;;9.10;99.90;;;9.39;58.02;101282.72;5072746;28;20063;-75
2021/04/27 00:49:56;;;;;;;11.15;7.00;;;9.10;99.90;;;9.35;57.80;101277.44;5072839;28;20052;-75
2021/04/27 00:52:25;;;;;;;10.45;6.85;;;9.20;99.90;;;9.33;57.62;101276.53;5073211;28;20064;-75
2021/04/27 00:54:53;;;;;;;7.95;6.90;;;9.10;99.90;;;9.27;57.71;101273.84;5071905;28;20067;-75
2021/04/27 00:57:21;;;;;;;10.88;7.13;;;9.10;99.90;;;9.26;57.84;101261.50;5071664;28;20557;-75
2021/04/27 00:59:49;;;;;;;11.23;7.47;;;9.10;99.90;;;9.14;57.85;101270.22;5072665;28;20128;-75
2021/04/27 01:02:16;;;;;;;11.30;7.00;;;9.00;99.90;;;9.15;57.91;101266.72;5071171;28;20076;-75
2021/04/27 01:04:44;;;;;;;11.45;8.00;;;9.00;99.90;;;9.13;58.13;101271.09;5071554;28;20041;-75
2021/04/27 01:07:15;;;;;;;10.43;7.93;;;8.90;99.90;;;9.18;57.97;101265.84;5071456;28;20052;-75
2021/04/27 01:09:48;;;;;;;10.40;7.07;;;8.90;99.90;;;9.21;58.02;101263.25;5072418;28;20052;-75
2021/04/27 01:12:21;;;;;;;10.50;7.65;;;9.00;99.90;;;9.22;58.02;101251.78;5071259;28;20056;-75
2021/04/27 01:14:59;;;;;;;10.52;7.57;;;9.00;99.90;;;9.15;57.82;101255.28;5072451;28;20040;-75
2021/04/27 01:17:27;;;;;;;14.27;8.32;;;8.90;99.90;;;9.20;58.18;101265.00;5088184;28;20189;-75
2021/04/27 01:20:08;;;;;;;13.23;7.55;;;9.00;99.90;;;9.19;58.08;101252.69;5072765;28;20040;-75
2021/04/27 01:23:14;;;;;;;11.50;7.50;;;9.00;99.90;;;8.91;58.09;101213.75;5072432;28;20052;-75
2021/04/27 01:25:47;;;;;;;10.38;6.85;;;8.90;99.90;;;9.04;58.46;101234.06;5105194;28;20047;-75
2021/04/27 01:28:18;;;;;;;8.07;7.07;;;8.80;99.90;;;8.82;58.36;101205.78;5072599;28;20492;-75
2021/04/27 01:30:47;;;;;;;8.95;7.65;;;8.80;99.90;;;9.00;58.40;101245.50;5072331;28;20052;-75
2021/04/27 01:33:20;;;;;;;12.63;7.72;;;8.80;99.90;;;9.01;58.37;101249.88;5072560;28;20052;-75
2021/04/27 01:35:49;;;;;;;14.90;8.30;;;8.80;99.90;;;9.04;58.59;101242.88;5071187;28;20461;-75
2021/04/27 01:38:20;;;;;;;10.00;7.55;;;8.80;99.90;;;9.02;58.37;101239.34;5070982;28;20461;-75
2021/04/27 01:40:48;;;;;;;;;;;8.80;99.90;;;9.04;58.48;101220.88;5071582;28;20045;-75
2021/04/27 01:43:18;;;;;;;11.43;7.72;;;8.80;99.90;;;9.05;58.18;101218.28;5072392;28;19924;-75
2021/04/27 01:45:50;;;;;;;11.77;7.80;;;8.90;99.90;;;9.01;58.39;101219.13;5070762;28;20084;-75
2021/04/27 01:48:17;;;;;;;9.23;7.97;;;8.80;99.90;;;8.95;58.98;101212.91;5070948;28;20045;-75
2021/04/27 01:50:46;;;;;;;13.02;8.45;;;8.80;99.90;;;8.99;58.74;101219.97;5072283;28;20137;-75
2021/04/27 01:53:53;;;;;;;11.73;7.50;;;8.70;99.90;;;8.86;59.09;101220.75;5069765;28;20053;-75
2021/04/27 01:56:22;;;;;;;15.13;8.02;;;8.70;99.90;;;8.77;58.85;101196.91;5053061;28;20040;-74
2021/04/27 01:58:51;;;;;;;13.20;7.55;;;8.70;99.90;;;8.81;58.72;101215.44;5070574;28;20559;-74
2021/04/27 02:01:26;;;;;;;10.75;8.38;;;8.60;99.90;;;8.86;59.03;101215.47;5070521;28;20047;-75
2021/04/27 02:03:54;;;;;;;10.10;8.10;;;8.60;99.90;;;8.75;59.25;101218.00;5071774;28;20505;-74
2021/04/27 02:06:37;;;;;;;11.23;8.88;;;8.60;99.90;;;8.79;59.22;101216.28;5070744;28;20106;-75
2021/04/27 02:09:09;;;;;;;10.45;8.25;;;8.60;99.90;;;8.84;59.13;101206.66;5070685;28;20049;-75
2021/04/27 02:11:51;;;;;;;13.27;8.63;;;8.60;99.90;;;8.78;59.12;101199.59;5070719;28;20049;-75
2021/04/27 02:14:23;;;;;;;12.82;8.48;;;8.60;99.90;;;8.78;59.45;101196.06;5104554;28;20070;-75
2021/04/27 02:16:59;;;;;;;12.13;7.90;;;8.60;99.90;;;8.69;59.47;101190.72;5070821;28;20083;-75
2021/04/27 02:19:30;;;;;;;11.07;8.27;;;8.50;99.90;;;8.66;59.72;101185.41;5072079;28;20049;-75
2021/04/27 02:22:27;;;;;;;10.35;8.45;;;8.50;99.90;;;8.64;59.52;101187.16;5074255;28;20084;-74
2021/04/27 02:25:05;;;;;;;10.13;7.93;;;8.40;99.90;;;7.79;59.94;101051.97;5091632;28;20094;-74
2021/04/27 02:27:35;;;;;;;10.38;8.73;;;8.40;99.90;;;8.32;59.94;101191.25;5074629;28;20114;-75
2021/04/27 02:30:06;;;;;;;12.02;8.63;;;8.20;99.90;;;8.37;60.51;101187.78;5075744;28;20382;-75
2021/04/27 02:32:34;;;;;;;9.88;8.60;;;8.20;99.90;;;8.36;60.67;101182.53;5075845;28;20118;-75
2021/04/27 02:35:02;;;;;;;13.10;9.00;;;8.20;99.90;;;8.31;60.59;101181.56;5075568;28;20040;-75
2021/04/27 02:37:29;;;;;;;13.77;9.10;;;8.10;99.90;;;8.36;60.29;101183.41;5074590;28;20071;-75
2021/04/27 02:40:08;;;;;;;13.32;9.05;;;8.20;99.90;;;8.39;60.44;101180.78;5074364;28;20095;-74
2021/04/27 02:42:37;;;;;;;10.73;7.67;;;8.20;99.90;;;8.35;60.17;101172.81;5074512;28;20449;-74
2021/04/27 02:45:31;;;;;;;13.00;8.75;;;8.20;99.90;;;8.41;60.57;101178.16;5073997;28;20299;-75
2021/04/27 02:48:21;;;;;;;11.50;7.97;;;8.20;99.90;;;8.31;60.58;101178.94;5075514;28;20374;-74
2021/04/27 02:50:55;;;;;;;13.02;8.75;;;8.10;99.90;;;8.23;60.83;101171.81;5075235;28;20401;-74
2021/04/27 02:53:24;;;;;;;14.02;9.15;;;8.10;99.90;;;8.16;61.29;101175.28;5075408;28;20036;-75
2021/04/27 02:55:53;;;;;;;15.05;9.02;;;8.00;99.90;;;8.24;60.86;101175.34;5074097;28;20068;-75
2021/04/27 02:58:21;;;;;;;11.10;9.25;;;8.00;99.90;;;8.29;60.90;101178.03;5075375;28;20056;-74
2021/04/27 03:00:57;;;;;;;10.15;8.95;;;8.10;99.90;;;8.21;60.92;101167.38;5074069;28;20041;-75
2021/04/27 03:03:25;;;;;;;11.48;9.27;;;8.00;99.90;;;8.19;60.79;101167.38;5090858;28;20063;-74
2021/04/27 03:05:52;;;;;;;11.23;8.95;;;8.00;99.90;;;8.19;61.23;101164.75;5075211;28;20040;-74
2021/04/27 03:08:20;;;;;;;13.98;8.90;;;8.00;99.90;;;8.14;61.17;101163.84;5073690;28;20082;-74
2021/04/27 03:10:48;;;;;;;10.65;8.80;;;8.00;99.90;;;8.17;61.22;101155.94;5073725;28;20481;-75
2021/04/27 03:13:15;;;;;;;15.15;9.40;;;8.00;99.90;;;7.93;61.61;101150.44;5073584;28;20055;-74
2021/04/27 03:15:51;;;;;;;13.48;10.20;;;7.80;99.90;;;7.94;61.65;101144.28;5073718;28;20055;-74
2021/04/27 03:18:19;;;;;;;17.75;10.10;;;7.90;99.90;;;8.01;61.49;101148.75;5073638;28;20079;-75
2021/04/27 03:20:47;;;;;;;14.52;9.63;;;7.80;99.90;;;7.93;61.60;101142.53;5073481;28;20440;-75
2021/04/27 03:23:33;;;;;;;10.07;8.32;;;7.80;99.90;;;7.97;61.70;101144.34;5073655;28;20134;-75
2021/04/27 03:26:00;;;;;;;10.95;9.02;;;7.80;99.90;;;7.84;62.21;101145.06;5107463;28;20423;-74
2021/04/27 03:28:42;;;;;;;10.63;8.73;;;7.60;99.90;;;7.87;61.98;101139.84;5073473;28;20037;-75
2021/04/27 03:31:16;;;;;;;15.85;9.43;;;7.70;99.90;;;7.92;61.88;101138.13;5073161;28;20144;-74
2021/04/27 03:33:45;;;;;;;14.68;10.05;;;7.70;99.90;;;7.93;61.89;101144.28;5072512;28;20043;-74
2021/04/27 03:36:12;;;;;;;10.25;8.85;;;7.70;99.90;;;7.90;61.71;101144.22;5074721;28;20055;-74
2021/04/27 03:38:40;;;;;;;11.85;9.10;;;7.70;99.90;;;7.95;61.75;101140.81;5074541;28;20047;-75
2021/04/27 03:41:08;;;;;;;11.90;9.93;;;7.70;99.90;;;7.98;61.61;101139.94;5073401;28;20082;-74
2021/04/27 03:43:36;;;;;;;12.68;9.50;;;7.80;99.90;;;8.02;61.23;101132.09;5073140;28;20083;-74
2021/04/27 03:46:03;;;;;;;14.45;9.52;;;7.80;99.90;;;8.07;61.46;101140.91;5074310;28;20426;-74
2021/04/27 03:48:31;;;;;;;11.75;9.52;;;7.90;99.90;;;8.06;61.27;101133.00;5074386;28;20062;-75
2021/04/27 03:51:01;;;;;;;12.02;9.93;;;7.90;99.90;;;8.13;61.00;101135.69;5073004;28;20130;-75
2021/04/27 03:53:43;;;;;;;13.02;9.27;;;7.90;99.90;;;8.10;60.86;101122.53;5074458;28;20139;-74
2021/04/27 03:56:31;;;;;;;12.75;9.23;;;7.90;99.90;;;8.11;61.18;101126.00;5072915;28;20084;-75
2021/04/27 03:59:02;;;;;;;12.23;9.30;;;7.90;99.90;;;8.12;60.99;101122.53;5072877;28;20048;-75
2021/04/27 04:01:30;;;;;;;11.20;9.60;;;7.90;99.90;;;8.10;60.95;101122.53;5089628;28;20168;-75
2021/04/27 04:03:59;;;;;;;12.73;9.20;;;7.90;99.90;;;8.08;60.91;101126.88;5072754;28;20041;-74
2021/04/27 04:06:28;;;;;;;13.30;10.07;;;7.90;99.90;;;8.10;60.65;101119.00;5072652;28;20052;-75
2021/04/27 04:09:04;;;;;;;12.60;8.93;;;7.90;99.90;;;8.11;60.62;101115.47;5074042;28;20049;-75
2021/04/27 04:12:09;;;;;;;13.43;9.05;;;7.90;99.90;;;7.67;61.02;101080.81;5064726;28;20056;-75
2021/04/27 04:14:37;;;;;;;12.00;9.43;;;7.70;99.90;;;7.84;60.99;101095.03;5089059;28;20135;-74
2021/04/27 04:17:08;;;;;;;10.25;9.13;;;7.70;99.90;;;7.90;60.79;101112.63;5089496;28;20044;-73
2021/04/27 04:19:38;;;;;;;15.57;9.63;;;7.70;99.90;;;7.90;60.76;101108.25;5072469;28;20059;-75
2021/04/27 04:22:07;;;;;;;11.43;9.30;;;7.70;99.90;;;7.93;60.88;101104.78;5073761;28;20044;-74
2021/04/27 04:24:47;;;;;;;13.95;9.07;;;7.70;99.90;;;7.06;60.85;100992.44;5072384;28;20052;-74
2021/04/27 04:27:15;;;;;;;13.90;9.57;;;7.60;99.90;;;7.65;61.60;101114.13;5072284;28;20052;-74
2021/04/27 04:30:08;;;;;;;12.05;9.18;;;7.50;99.90;;;7.56;61.84;101107.88;5073558;28;20406;-74
2021/04/27 04:32:59;;;;;;;15.70;9.70;;;7.40;99.90;;;7.74;61.70;101108.97;5073068;28;20056;-74
2021/04/27 04:36:01;;;;;;;15.70;10.00;;;7.50;99.90;;;7.72;61.79;101100.19;5073023;28;20056;-74
2021/04/27 04:38:49;;;;;;;15.77;9.60;;;7.50;99.90;;;7.65;61.35;101098.34;5073105;28;20064;-74
2021/04/27 04:41:43;;;;;;;12.93;9.52;;;7.60;99.90;;;7.68;61.44;101103.66;5064576;28;20060;-74
2021/04/27 04:44:40;;;;;;;13.43;9.40;;;7.50;99.90;;;7.62;61.48;101100.94;5063177;28;20060;-74
2021/04/27 04:47:25;;;;;;;12.10;9.00;;;7.50;99.90;;;7.27;61.90;101086.50;5072841;28;20051;-74
2021/04/27 04:50:16;;;;;;;15.30;9.63;;;7.30;99.90;;;7.29;61.63;101082.13;5053309;28;20059;-74
2021/04/27 04:53:03;;;;;;;11.00;9.63;;;7.40;99.90;;;7.41;61.64;101095.44;5072861;28;20059;-74
2021/04/27 04:55:44;;;;;;;12.63;9.77;;;7.30;99.90;;;7.51;62.01;101101.69;5071887;28;20737;-74
2021/04/27 04:58:24;;;;;;;12.37;9.57;;;7.40;99.90;;;7.50;61.84;101098.16;5073105;28;20274;-74
2021/04/27 05:01:01;;;;;;;12.52;9.55;;;7.30;99.90;;;7.65;62.09;101090.44;5071681;28;20482;-74
2021/04/27 05:03:39;;;;;;;12.68;9.88;;;7.50;99.90;;;7.65;61.37;101093.06;5072939;28;20048;-74
2021/04/27 05:06:28;;;;;;;12.23;9.70;;;7.50;99.90;;;7.66;61.60;101072.91;5072894;28;20510;-74
2021/04/27 05:09:14;;;;;;;11.43;9.23;;;7.60;99.90;;;7.77;61.36;101087.94;5072558;28;20202;-74
2021/04/27 05:11:58;;;;;;;11.38;9.75;;;7.60;99.90;;;7.72;61.38;101097.56;5071461;28;20048;-74
2021/04/27 05:14:33;;;;;;;15.52;10.13;;;7.60;99.90;;;6.93;63.30;101060.63;5072918;28;20044;-74
2021/04/27 05:17:02;;;;;;;;;;;7.20;99.90;;;7.47;62.84;101095.50;5071757;28;20434;-74
2021/04/27 05:19:31;;;;;;;11.27;9.93;;;7.30;99.90;;;7.48;62.61;101097.28;5072696;28;20003;-74
2021/04/27 05:22:00;;;;;;;12.20;9.53;;;7.30;99.90;;;7.56;62.19;101089.47;5071304;28;20062;-74
2021/04/27 05:24:31;;;;;;;12.50;9.60;;;7.40;99.90;;;7.74;61.74;101101.06;5071397;28;20414;-74
2021/04/27 05:27:12;;;;;;;11.90;9.47;;;7.50;99.90;;;7.60;62.29;101100.06;5071327;28;20040;-74
2021/04/27 05:29:40;;;;;;;13.45;9.88;;;7.50;99.90;;;7.82;61.92;101102.03;5072242;28;20044;-73
2021/04/27 05:32:08;;;;;;;13.93;10.15;;;7.60;99.90;;;7.91;61.38;101103.88;5071214;28;20234;-74
2021/04/27 05:34:36;;;;;;;13.60;9.73;;;7.70;99.90;;;7.49;61.80;101077.97;5071202;28;20076;-74
2021/04/27 05:37:04;;;;;;;14.20;9.73;;;7.60;99.90;;;7.47;61.89;101084.97;5072418;28;20067;-74
2021/04/27 05:39:32;;;;;;;13.73;10.75;;;7.60;99.90;;;7.91;61.88;101111.78;5087978;28;20059;-74
2021/04/27 05:42:00;;;;;;;12.20;10.80;;;7.70;99.90;;;7.68;62.13;101086.97;5072383;28;20115;-74
2021/04/27 05:44:28;;;;;;;10.88;9.73;;;7.70;99.90;;;8.06;61.63;101107.56;5070885;28;20060;-74
2021/04/27 05:46:56;;;;;;;14.60;10.00;;;7.80;99.90;;;8.18;61.14;101112.94;5071762;28;20095;-74
2021/04/27 05:49:23;;;;;;;11.50;10.35;;;8.00;99.90;;;8.35;60.41;101113.09;5104692;28;20076;-74
2021/04/27 05:51:51;;;;;;;17.30;10.57;;;8.10;99.90;;;8.48;60.56;101116.75;5072317;28;20377;-74
2021/04/27 05:54:18;;;;;;;14.40;10.48;;;8.20;99.90;;;8.50;59.65;101112.34;5071945;28;20574;-74
2021/04/27 05:56:46;;;;;;;15.57;10.15;;;8.30;99.90;;;8.60;59.84;101117.69;5071788;28;20037;-74
2021/04/27 05:59:17;;;;;;;12.05;10.07;;;8.40;99.90;;;8.59;59.28;101115.06;5072379;28;20052;-74
2021/04/27 06:01:45;;;;;;;15.63;10.38;;;8.40;99.90;;;8.52;59.13;101102.69;5072246;28;20049;-74
2021/04/27 06:04:12;;;;;;;13.35;10.00;;;8.40;99.90;;;8.11;59.85;101108.47;5072216;28;20094;-74
2021/04/27 06:06:40;;;;;;;12.18;10.05;;;8.10;99.90;;;8.25;60.33;101107.72;5071692;28;20053;-74
2021/04/27 06:09:09;;;;;;;15.50;10.10;;;8.10;99.90;;;8.08;61.55;101097.03;5087532;28;20082;-74
2021/04/27 06:11:37;;;;;;;13.55;10.23;;;7.90;99.90;;;7.74;62.64;101105.47;5072128;28;20069;-74
2021/04/27 06:14:05;;;;;;;12.20;9.55;;;7.60;99.90;;;8.02;61.94;101100.47;5071761;28;20048;-74
2021/04/27 06:16:33;;;;;;;13.98;11.30;;;7.80;99.90;;;7.87;62.30;101102.09;5072025;28;20098;-74
2021/04/27 06:19:02;;;;;;;13.98;10.32;;;7.80;99.90;;;7.97;62.07;101103.94;5070733;28;20041;-75
2021/04/27 06:21:30;;;;;;;11.43;9.63;;;7.80;99.90;;;8.23;61.75;101114.75;5071732;28;20121;-65
2021/04/27 06:23:57;;;;;;;15.25;10.80;;;7.90;99.90;;;8.13;61.45;101080.38;5070598;28;20264;-72
2021/04/27 06:26:26;;;;;;;12.55;10.60;;;8.10;99.90;;;8.25;60.89;101105.09;5071950;28;20043;-73
2021/04/27 06:28:54;;;;;;;13.45;10.60;;;8.10;99.90;;;7.46;63.56;101111.25;5071593;28;20115;-80
2021/04/27 06:31:21;;;;;;;13.85;10.88;;;7.50;99.90;;;7.60;64.63;101101.78;5071926;28;20094;-79
2021/04/27 06:33:49;;;;;;;11.95;10.75;;;7.40;99.90;;;7.19;64.68;101102.19;5071576;28;20048;-79
2021/04/27 06:36:17;;;;;;;12.77;11.40;;;7.10;99.90;;;7.07;65.77;101065.19;5071895;28;20041;-77
2021/04/27 06:38:45;;;;;;;14.20;11.10;;;7.00;99.90;;;7.29;64.67;101090.91;5071559;28;20045;-86
2021/04/27 06:41:12;;;;;;;15.10;11.38;;;7.10;99.90;;;7.46;64.86;101064.78;5071521;28;20116;-78
2021/04/27 06:43:40;;;;;;;14.40;11.17;;;7.30;99.90;;;7.70;64.05;101085.22;5070362;28;20064;-77
2021/04/27 06:46:08;;;;;;;16.35;11.60;;;7.50;99.90;;;7.85;63.69;101074.84;5071644;28;20052;-74
2021/04/27 06:48:35;;;;;;;14.55;11.15;;;7.60;99.90;;;7.69;64.74;101080.81;5071641;28;20487;-72
2021/04/27 06:51:06;;;;;;;16.57;11.87;;;7.60;99.90;;;8.11;64.05;101084.75;5071748;28;20106;-74
2021/04/27 06:53:35;;;;;;;18.48;11.70;;;7.80;99.90;;;8.32;63.79;101089.38;5071807;28;20044;-76
2021/04/27 06:56:03;;;;;;;16.98;11.18;;;8.00;99.90;;;8.45;62.71;101085.97;5071669;28;20398;-74
2021/04/27 06:58:31;;;;;;;16.15;10.57;;;8.20;99.90;;;8.65;62.25;101081.69;5071961;28;20501;-74
2021/04/27 07:00:58;;;;;;;16.52;11.32;;;8.40;99.90;;;8.89;62.19;101083.59;5071650;28;20082;-77
2021/04/27 07:03:26;;;;;;;13.65;11.20;;;8.60;99.90;;;8.89;61.40;101078.31;5071355;28;20131;-75
2021/04/27 07:05:53;;;;;;;16.40;10.80;;;8.70;99.90;;;8.88;60.98;101063.41;5071394;28;20039;-76
2021/04/27 07:08:21;;;;;;;13.55;11.23;;;8.80;99.90;;;9.23;60.67;101080.28;5072368;28;20048;-74
2021/04/27 07:10:51;;;;;;;14.27;11.13;;;9.00;99.90;;;8.75;60.57;101048.38;5075063;28;20068;-71
2021/04/27 07:13:18;;;;;;;12.95;11.05;;;8.90;99.90;;;9.34;59.72;101086.47;5074887;28;20452;-74
2021/04/27 07:15:45;;;;;;;13.25;11.05;;;9.10;99.90;;;9.53;59.24;101090.06;5075099;28;20036;-75
2021/04/27 07:18:14;;;;;;;12.20;10.65;;;9.20;99.90;;;9.64;59.08;101083.94;5075172;28;20044;-73
2021/04/27 07:20:45;;;;;;;15.27;10.00;;;9.40;99.90;;;9.76;58.83;101076.03;5074611;28;20052;-73
2021/04/27 07:23:13;;;;;;;12.25;10.30;;;9.50;99.90;;;9.95;58.54;101083.13;5074939;28;20076;-75
2021/04/27 07:25:42;;;;;;;13.85;10.13;;;9.70;99.90;;;10.14;58.34;101085.81;5090327;28;20044;-75
2021/04/27 07:28:11;;;;;;;13.25;10.90;;;9.90;99.90;;;10.25;57.29;101084.06;5074759;28;20061;-75
2021/04/27 07:30:39;;;;;;;14.05;10.23;;;10.00;99.90;;;10.38;56.90;101086.72;5074619;28;20398;-74
2021/04/27 07:33:07;;;;;;;12.27;10.30;;;10.10;99.90;;;10.48;56.37;101077.91;5074825;28;20154;-76
2021/04/27 07:35:35;;;;;;;15.60;11.00;;;10.30;99.90;;;10.48;56.52;101074.34;5074485;28;20106;-75
2021/04/27 07:38:04;;;;;;;15.50;10.43;;;10.20;99.90;;;10.51;56.42;101069.09;5074602;28;20126;-75
2021/04/27 07:40:34;;;;;;;18.88;10.63;;;10.40;99.90;;;9.78;59.19;101066.34;5074682;28;20059;-76
2021/04/27 07:43:02;;;;;;;12.75;11.10;;;9.70;99.90;;;10.06;59.59;101074.31;5074871;28;20402;-75
2021/04/27 07:45:33;;;;;;;14.70;10.98;;;9.70;99.90;;;10.33;57.30;101063.78;5074467;28;20055;-75
2021/04/27 07:48:05;;;;;;;19.88;10.95;;;10.00;99.90;;;10.17;56.70;101069.94;5074466;28;20107;-75
2021/04/27 07:50:34;;;;;;;12.50;11.02;;;10.00;99.90;;;9.35;58.80;101063.63;5074331;28;20040;-75
2021/04/27 07:53:03;;;;;;;15.65;11.80;;;9.30;99.90;;;10.19;58.39;101068.19;5074162;28;20524;-75
2021/04/27 07:55:31;;;;;;;13.00;11.20;;;9.80;99.90;;;10.55;56.91;101068.19;5074270;28;20048;-75
2021/04/27 07:58:03;;;;;;;13.65;11.10;;;10.20;99.90;;;10.28;57.72;101071.72;5074556;28;20037;-75
2021/04/27 08:00:32;;;;;;;12.55;11.20;;;10.10;99.90;;;10.77;56.34;101073.44;5073900;28;20045;-76
2021/04/27 08:03:00;;;;;;;15.32;10.93;;;10.40;99.90;;;11.13;56.16;101050.41;5074181;28;20050;-76
2021/04/27 08:05:28;;;;;;;14.07;10.90;;;10.80;99.90;;;10.90;55.28;100955.19;5073864;28;20101;-75
2021/04/27 08:07:56;;;;;;;15.80;11.02;;;11.20;99.90;;;11.74;53.90;101060.72;5072439;28;20378;-76
2021/04/27 08:10:25;;;;;;;12.68;10.80;;;11.50;99.90;;;11.62;54.53;101060.75;5073721;28;20110;-76
2021/04/27 08:12:54;;;;;;;12.63;10.70;;;11.40;99.90;;;12.08;53.08;101068.47;5073684;28;20102;-75
2021/04/27 08:15:24;;;;;;;15.45;10.55;;;11.80;99.90;;;12.03;54.72;101059.63;5073850;28;20795;-76
2021/04/27 08:17:54;;;;;;;12.82;10.63;;;11.70;99.90;;;12.37;52.73;101069.97;5073691;28;20123;-76
2021/04/27 08:20:23;;;;;;;11.82;10.10;;;12.00;99.90;;;12.87;51.57;101064.19;5073453;28;20044;-76
2021/04/27 08:22:50;;;;;;;12.32;10.18;;;12.50;99.90;;;13.13;50.26;101051.53;5073444;28;20079;-76
2021/04/27 08:25:19;;;;;;;10.38;9.30;;;12.80;99.90;;;12.41;49.38;101034.56;5073709;28;20060;-77
2021/04/27 08:27:47;;;;;;;10.70;9.45;;;12.50;99.90;;;12.70;50.47;101058.16;5073616;28;20049;-76
2021/04/27 08:30:17;;;;;;;12.68;10.35;;;12.40;99.90;;;13.07;48.94;101053.34;5073250;28;20482;-76
2021/04/27 08:32:45;;;;;;;;;;;12.80;99.90;;;12.88;48.46;101057.97;5073973;28;20049;-77
2021/04/27 08:35:14;;;;;;;12.57;9.68;;;12.70;99.90;;;12.52;50.56;101047.75;5073527;28;20019;-76
2021/04/27 08:37:41;;;;;;;13.82;10.30;;;12.30;99.90;;;11.76;49.41;101048.34;5072039;28;20507;-77
2021/04/27 08:40:12;;;;;;;15.40;10.70;;;11.80;99.90;;;11.63;49.16;101041.31;5073066;28;20409;-77
2021/04/27 08:42:40;;;;;;;13.68;10.00;;;11.50;99.90;;;11.45;50.03;101040.53;5073341;28;20052;-75
2021/04/27 08:45:10;;;;;;;18.90;10.93;;;11.30;99.90;;;11.06;51.65;101014.25;5073308;28;20090;-76
2021/04/27 08:47:38;;;;;;;14.40;11.57;;;11.00;99.90;;;11.53;52.23;101023.72;5072727;28;20056;-76
2021/04/27 08:50:12;;;;;;;16.88;11.05;;;11.20;99.90;;;12.34;51.38;101031.97;5073126;28;20037;-76
2021/04/27 08:52:41;;;;;;;18.10;10.38;;;11.80;99.90;;;12.45;49.09;101027.44;5073068;28;20485;-76
2021/04/27 08:55:10;;;;;;;13.23;10.30;;;12.20;99.90;;;12.05;48.72;101034.00;5072909;28;20131;-77
2021/04/27 08:57:37;;;;;;;14.40;10.85;;;11.90;99.90;;;11.65;50.52;101028.06;5072809;28;20047;-76
2021/04/27 09:00:09;;;;;;;13.27;10.70;;;11.50;99.90;;;12.01;51.48;101019.88;5072963;28;20040;-76
2021/04/27 09:02:37;;;;;;;15.65;10.77;;;11.70;99.90;;;11.59;52.07;101023.66;5073098;28;20063;-77
2021/04/27 09:05:20;;;;;;;13.23;11.05;;;11.40;99.90;;;12.09;51.83;101011.88;5073196;28;20033;-76
2021/04/27 09:07:49;;;;;;;13.70;10.30;;;11.70;99.90;;;11.77;49.81;100988.25;5072899;28;20443;-76
2021/04/27 09:10:19;;;;;;;12.20;10.43;;;11.70;99.90;;;11.90;49.83;101023.50;5072691;28;20044;-77
2021/04/27 09:12:50;;;;;;;11.45;9.90;;;11.70;99.90;;;11.60;51.18;101016.59;5073249;28;20117;-76
2021/04/27 09:15:28;;;;;;;15.02;10.68;;;11.40;99.90;;;11.87;51.11;101023.50;5072916;28;20398;-76
2021/04/27 09:17:56;;;;;;;16.20;10.32;;;11.60;99.90;;;12.08;50.98;101004.81;5071317;28;20401;-77
2021/04/27 09:20:24;;;;;;;18.00;9.40;;;11.80;99.90;;;12.92;49.66;101019.00;5072786;28;20048;-76
2021/04/27 09:23:08;;;;;;;13.55;10.13;;;12.40;99.90;;;13.47;48.26;101017.44;5072621;28;20131;-77
2021/04/27 09:25:36;;;;;;;14.23;9.98;;;13.00;99.90;;;13.38;47.90;101018.44;5072309;28;20044;-77
2021/04/27 09:28:04;;;;;;;12.30;9.77;;;13.20;99.90;;;13.46;46.66;101005.03;5071324;28;20049;-76
2021/04/27 09:30:31;;;;;;;13.25;9.73;;;13.30;99.90;;;12.45;48.32;101027.44;5071964;28;20045;-77
2021/04/27 09:33:01;;;;;;;16.55;9.50;;;12.50;99.90;;;12.51;49.32;101009.69;5072085;28;20438;-76
2021/04/27 09:35:39;;;;;;;15.30;9.68;;;12.30;99.90;;;13.46;47.95;101016.56;5072959;28;20094;-77
2021/04/27 09:38:15;;;;;;;14.30;10.23;;;12.90;99.90;;;13.74;48.18;101010.84;5072197;28;20509;-76
2021/04/27 09:40:54;;;;;;;12.77;9.88;;;13.30;99.90;;;13.80;45.08;101016.06;5072439;28;20482;-77
2021/04/27 09:43:24;;;;;;;12.18;9.43;;;13.70;99.90;;;13.10;46.64;101017.03;5072277;28;20048;-77
2021/04/27 09:45:55;;;;;;;12.73;9.38;;;13.00;99.90;;;13.00;46.36;101012.69;5071074;28;20052;-78
2021/04/27 09:48:32;;;;;;;12.63;10.07;;;12.70;99.90;;;13.30;45.21;101004.38;5070661;28;20056;-77
2021/04/27 09:51:25;;;;;;;11.40;9.40;;;13.00;99.90;;;12.62;42.88;101004.28;5072140;28;20044;-78
2021/04/27 09:54:13;;;;;;;15.48;10.75;;;12.50;99.90;;;12.36;46.08;100991.28;5072384;28;20052;-78
2021/04/27 09:56:46;;;;;;;12.75;9.52;;;12.10;99.90;;;11.98;45.62;100921.81;5072045;28;20048;-77
2021/04/27 09:59:18;;;;;;;12.80;11.00;;;12.20;99.90;;;12.50;46.74;100961.97;5070977;28;20072;-77
2021/04/27 10:01:49;;;;;;;11.88;9.52;;;12.30;99.90;;;13.01;44.80;100994.97;5071961;28;20109;-78
2021/04/27 10:04:38;;;;;;;12.80;10.07;;;12.70;99.90;;;12.49;46.79;100992.03;5072321;28;20228;-78
2021/04/27 10:07:05;;;;;;;12.18;10.20;;;12.30;99.90;;;12.67;46.52;100981.22;5072125;28;20374;-78
2021/04/27 10:09:35;;;;;;;14.85;9.50;;;12.50;99.90;;;13.06;47.04;100983.47;5070673;28;20045;-76
2021/04/27 10:12:06;;;;;;;15.32;10.00;;;12.70;99.90;;;13.27;46.73;100977.84;5072472;28;20475;-78
2021/04/27 10:14:34;;;;;;;15.95;9.65;;;13.00;99.90;;;12.95;45.69;100980.00;5072358;28;20049;-78
2021/04/27 10:17:02;;;;;;;12.45;9.75;;;12.70;99.90;;;12.86;44.79;100980.13;5072191;28;20032;-77
2021/04/27 10:19:29;;;;;;;12.30;10.02;;;12.80;99.90;;;13.15;46.22;100977.13;5072108;28;20056;-78
2021/04/27 10:21:57;;;;;;;14.43;10.50;;;12.80;99.90;;;13.03;45.88;100974.59;5070647;28;20080;-77
2021/04/27 10:24:26;;;;;;;12.75;10.23;;;12.80;99.90;;;12.93;44.95;100972.97;5072059;28;20052;-78
2021/04/27 10:26:54;;;;;;;15.95;9.93;;;12.80;99.90;;;13.21;44.62;100966.44;5072330;28;20043;-77
2021/04/27 10:29:24;;;;;;;14.13;10.13;;;12.90;99.90;;;12.81;41.88;100968.69;5071946;28;20041;-78
2021/04/27 10:32:17;;;;;;;12.02;9.65;;;12.80;99.90;;;12.85;42.83;100956.25;5072136;28;20052;-78